createdAt,value
2023-11-18T00:00:49.419Z,1.70
2023-11-18T00:02:49.581Z,1.65
2023-11-18T00:04:50.001Z,1.60
2023-11-18T00:06:50.092Z,1.52
2023-11-18T00:08:50.259Z,1.49
2023-11-18T00:10:49.383Z,1.45
2023-11-18T00:12:49.599Z,1.38
2023-11-18T00:14:49.649Z,1.33
2023-11-18T00:16:49.733Z,1.33
2023-11-18T00:18:49.806Z,1.25
2023-11-18T00:20:50.001Z,1.18
2023-11-18T00:22:50.071Z,1.12
2023-11-18T00:24:50.321Z,1.09
2023-11-18T00:26:49.391Z,1.06
2023-11-18T00:28:49.628Z,0.98
2023-11-18T00:30:49.736Z,0.93
2023-11-18T00:32:50.104Z,0.92
2023-11-18T00:34:49.642Z,0.89
2023-11-18T00:36:49.835Z,0.77
2023-11-18T00:38:49.963Z,0.74
2023-11-18T00:40:50.064Z,0.71
2023-11-18T00:42:50.226Z,0.67
2023-11-18T00:44:49.366Z,0.60
2023-11-18T00:46:49.562Z,0.60
2023-11-18T00:48:49.861Z,0.63
2023-11-18T00:50:50.111Z,0.63
2023-11-18T00:52:50.473Z,0.60
2023-11-18T00:54:49.850Z,0.56
2023-11-18T00:56:50.033Z,0.57
2023-11-18T00:58:50.186Z,0.56
2023-11-18T01:00:50.272Z,0.47
2023-11-18T01:02:49.493Z,0.40
2023-11-18T01:04:49.688Z,0.41
2023-11-18T01:06:49.947Z,0.46
2023-11-18T01:08:50.261Z,0.46
2023-11-18T01:10:49.502Z,0.38
2023-11-18T01:12:49.633Z,0.31
2023-11-18T01:14:49.747Z,0.28
2023-11-18T01:16:49.912Z,0.24
2023-11-18T01:18:50.073Z,0.14
2023-11-18T01:20:50.237Z,0.10
2023-11-18T01:22:50.591Z,0.10
2023-11-18T01:24:49.680Z,0.06
2023-11-18T01:26:49.729Z,0.06
2023-11-18T01:28:49.948Z,0.02
2023-11-18T01:44:50.263Z,0.00
2023-11-18T01:46:49.509Z,0.02
2023-11-18T01:48:49.488Z,0.04
2023-11-18T01:50:49.581Z,0.03
2023-11-18T01:52:49.861Z,0.04
2023-11-18T01:54:50.096Z,0.02
2023-11-18T01:56:50.269Z,0.02
2023-11-18T01:58:49.381Z,0.07
2023-11-18T02:00:49.517Z,0.04
2023-11-18T02:42:49.843Z,0.02
2023-11-18T02:44:50.096Z,0.04
2023-11-18T02:46:50.329Z,0.12
2023-11-18T02:48:49.460Z,0.14
2023-11-18T02:50:49.549Z,0.06
2023-11-18T02:52:49.777Z,0.00
2023-11-18T03:46:49.851Z,0.00
2023-11-18T03:48:49.965Z,0.02
2023-11-18T03:50:50.124Z,0.02
2023-11-18T03:52:50.211Z,0.03
2023-11-18T03:54:49.455Z,0.02
2023-11-18T03:56:49.506Z,0.02
2023-11-18T03:58:49.728Z,0.00
2023-11-18T04:00:49.841Z,0.02
2023-11-18T04:02:49.914Z,0.02
2023-11-18T07:38:49.396Z,0.0
2023-11-18T07:40:49.608Z,0.0
2023-11-18T07:42:50.038Z,0.1
2023-11-18T07:44:50.133Z,0.20
2023-11-18T07:46:50.309Z,0.2
2023-11-18T07:48:49.484Z,0.3
2023-11-18T07:50:49.785Z,0.3
2023-11-18T07:52:49.949Z,0.3
2023-11-18T07:54:52.383Z,0.4
2023-11-18T07:56:49.586Z,0.4
2023-11-18T07:58:49.806Z,0.60
2023-11-18T08:00:49.910Z,0.6
2023-11-18T08:02:50.191Z,0.6
2023-11-18T08:04:49.427Z,0.6
2023-11-18T08:06:49.531Z,0.7
2023-11-18T08:08:49.807Z,0.8
2023-11-18T08:10:49.953Z,0.9
2023-11-18T08:12:50.146Z,0.9
2023-11-18T08:14:50.073Z,1.0
2023-11-18T08:16:50.454Z,1.1
2023-11-18T08:18:49.588Z,1.2
2023-11-18T08:20:49.698Z,1.36
2023-11-18T08:22:49.956Z,1.4
2023-11-18T08:24:50.037Z,1.4
2023-11-18T08:26:50.299Z,1.50
2023-11-18T08:28:49.684Z,1.49
2023-11-18T08:30:49.994Z,1.57
2023-11-18T08:32:50.305Z,1.57
2023-11-18T08:34:49.699Z,1.62
2023-11-18T08:36:49.756Z,1.63
2023-11-18T08:38:50.022Z,1.63
2023-11-18T08:40:50.343Z,1.74
2023-11-18T08:42:49.522Z,1.79
2023-11-18T08:44:49.770Z,1.77
2023-11-18T08:46:50.009Z,1.81
2023-11-18T08:48:50.112Z,1.87
2023-11-18T08:50:50.054Z,1.92
2023-11-18T08:52:49.510Z,1.97
2023-11-18T08:54:49.802Z,2.0
2023-11-18T08:56:50.053Z,2.0
2023-11-18T08:58:50.173Z,2.09
2023-11-18T09:00:50.305Z,2.1
2023-11-18T09:02:54.231Z,2.20
2023-11-18T09:04:49.959Z,2.2
2023-11-18T09:06:50.085Z,2.22
2023-11-18T09:08:50.104Z,2.3
2023-11-18T09:10:49.445Z,2.4
2023-11-18T09:12:49.617Z,2.42
2023-11-18T09:14:49.753Z,2.45
2023-11-18T09:16:49.759Z,2.51
2023-11-18T09:18:50.070Z,2.7
2023-11-18T09:20:50.184Z,2.7
2023-11-18T09:22:50.273Z,2.7
2023-11-18T09:24:49.428Z,2.7
2023-11-18T09:26:49.502Z,2.7
2023-11-18T09:28:49.804Z,2.8
2023-11-18T09:30:49.794Z,2.88
2023-11-18T09:32:49.953Z,2.9
2023-11-18T09:34:50.268Z,2.89
2023-11-18T09:36:49.598Z,2.86
2023-11-18T09:38:49.875Z,2.98
2023-11-18T09:40:50.091Z,2.96
2023-11-18T09:42:50.237Z,2.99
2023-11-18T09:44:49.431Z,3.05
2023-11-18T09:46:49.472Z,2.96
2023-11-18T09:48:49.602Z,3.00
2023-11-18T09:50:49.650Z,3.09
2023-11-18T09:52:49.813Z,3.08
2023-11-18T09:54:49.985Z,3.18
2023-11-18T09:56:50.054Z,3.16
2023-11-18T09:58:50.148Z,3.29
2023-11-18T10:00:49.418Z,3.3
2023-11-18T10:02:49.926Z,3.4
2023-11-18T10:04:50.168Z,3.4
2023-11-18T10:06:50.255Z,3.4
2023-11-18T10:08:50.336Z,3.5
2023-11-18T10:10:49.639Z,3.6
2023-11-18T10:12:49.777Z,3.7
2023-11-18T10:14:49.809Z,3.7
2023-11-18T10:16:49.947Z,3.8
2023-11-18T10:18:50.181Z,3.9
2023-11-18T10:20:49.639Z,4.0
2023-11-18T10:22:49.701Z,4.0
2023-11-18T10:24:49.706Z,4.1
2023-11-18T10:26:49.759Z,4.2
2023-11-18T10:28:49.951Z,4.3
2023-11-18T10:30:50.150Z,4.4
2023-11-18T10:32:50.255Z,4.4
2023-11-18T10:34:49.366Z,4.4
2023-11-18T10:36:49.426Z,4.5
2023-11-18T10:38:49.759Z,4.5
2023-11-18T10:40:49.971Z,4.7
2023-11-18T10:42:50.288Z,4.7
2023-11-18T10:44:50.344Z,4.7
2023-11-18T10:46:49.625Z,4.8
2023-11-18T10:48:49.910Z,4.9
2023-11-18T10:50:49.867Z,4.9
2023-11-18T10:52:49.880Z,4.9
2023-11-18T10:54:50.015Z,5.0
2023-11-18T10:56:50.098Z,5.0
2023-11-18T10:58:50.266Z,5.1
2023-11-18T11:00:50.387Z,5.1
2023-11-18T11:02:49.486Z,5.1
2023-11-18T11:04:49.845Z,5.13
2023-11-18T11:06:50.062Z,5.10
2023-11-18T11:08:50.244Z,5.07
2023-11-18T11:10:49.426Z,5.07
2023-11-18T11:12:49.642Z,5.10
2023-11-18T11:14:49.766Z,5.13
2023-11-18T11:16:49.944Z,5.28
2023-11-18T11:18:50.122Z,5.41
2023-11-18T11:20:50.349Z,5.47
2023-11-18T11:22:49.714Z,5.50
2023-11-18T11:24:49.871Z,5.47
2023-11-18T11:26:50.003Z,5.54
2023-11-18T11:28:50.366Z,5.53
2023-11-18T11:30:49.646Z,5.61
2023-11-18T11:32:49.802Z,5.55
2023-11-18T11:34:49.908Z,5.64
2023-11-18T11:36:50.010Z,5.68
2023-11-18T11:38:50.052Z,5.68
2023-11-18T11:40:50.157Z,5.75
2023-11-18T11:42:50.130Z,5.87
2023-11-18T11:44:50.177Z,5.94
2023-11-18T11:46:50.421Z,6.05
2023-11-18T11:48:49.879Z,6.1
2023-11-18T11:50:50.015Z,6.1
2023-11-18T11:52:50.265Z,6.2
2023-11-18T11:54:49.356Z,6.3
2023-11-18T11:56:49.422Z,6.3
2023-11-18T11:58:49.457Z,6.4
2023-11-18T12:00:49.500Z,6.4
2023-11-18T12:02:49.630Z,6.5
2023-11-18T12:04:50.010Z,6.5
2023-11-18T12:06:49.408Z,6.6
2023-11-18T12:08:49.504Z,6.7
2023-11-18T12:10:49.611Z,6.7
2023-11-18T12:12:49.744Z,6.8
2023-11-18T12:14:50.047Z,6.8
2023-11-18T12:16:50.256Z,6.8
2023-11-18T12:18:50.210Z,6.9
2023-11-18T12:20:49.673Z,6.9
2023-11-18T12:22:49.777Z,7.0
2023-11-18T12:24:50.073Z,7.0
2023-11-18T12:26:50.143Z,7.0
2023-11-18T12:28:50.243Z,7.0
2023-11-18T12:30:49.487Z,7.1
2023-11-18T12:32:49.661Z,7.1
2023-11-18T12:34:49.803Z,7.1
2023-11-18T12:36:49.905Z,7.1
2023-11-18T12:38:49.930Z,7.1
2023-11-18T12:40:50.030Z,7.1
2023-11-18T12:42:50.314Z,7.2
2023-11-18T12:44:49.607Z,7.3
2023-11-18T12:46:49.757Z,7.3
2023-11-18T12:48:49.961Z,7.4
2023-11-18T12:50:50.280Z,7.5
2023-11-18T12:52:49.569Z,7.5
2023-11-18T12:54:49.700Z,7.5
2023-11-18T12:56:49.873Z,7.54
2023-11-18T12:58:50.247Z,7.45
2023-11-18T13:00:49.355Z,7.48
2023-11-18T13:02:49.942Z,7.52
2023-11-18T13:04:49.450Z,7.51
2023-11-18T13:06:49.752Z,7.51
2023-11-18T13:08:49.825Z,7.51
2023-11-18T13:10:50.037Z,7.54
2023-11-18T13:12:50.141Z,7.55
2023-11-18T13:14:50.217Z,7.64
2023-11-18T13:16:49.401Z,7.64
2023-11-18T13:18:49.575Z,7.71
2023-11-18T13:20:49.556Z,7.75
2023-11-18T13:22:49.752Z,7.79
2023-11-18T13:24:49.865Z,7.88
2023-11-18T13:26:49.980Z,7.92
2023-11-18T13:28:50.372Z,7.93
2023-11-18T13:30:49.724Z,7.92
2023-11-18T13:32:49.866Z,7.90
2023-11-18T13:34:50.246Z,7.89
2023-11-18T13:36:49.505Z,7.90
2023-11-18T13:38:49.536Z,8.00
2023-11-18T13:40:49.846Z,8.00
2023-11-18T13:42:50.087Z,8.06
2023-11-18T13:44:50.104Z,8.02
2023-11-18T13:46:50.303Z,8.02
2023-11-18T13:48:49.547Z,8.02
2023-11-18T13:50:49.582Z,8.02
2023-11-18T13:52:49.806Z,8.00
2023-11-18T13:54:49.897Z,8.00
2023-11-18T13:56:50.163Z,8.02
2023-11-18T13:58:50.187Z,7.96
2023-11-18T14:00:49.364Z,7.95
2023-11-18T14:02:49.671Z,7.88
2023-11-18T14:04:50.056Z,7.86
2023-11-18T14:06:50.311Z,7.85
2023-11-18T14:08:49.582Z,7.84
2023-11-18T14:10:58.477Z,7.82
2023-11-18T14:12:49.726Z,7.78
2023-11-18T14:14:49.759Z,7.75
2023-11-18T14:16:49.821Z,7.74
2023-11-18T14:18:49.909Z,7.75
2023-11-18T14:20:49.873Z,7.74
2023-11-18T14:22:50.756Z,7.75
2023-11-18T14:24:49.753Z,7.71
2023-11-18T14:26:49.793Z,7.69
2023-11-18T14:28:49.857Z,7.72
2023-11-18T14:30:50.149Z,7.66
2023-11-18T14:32:49.448Z,7.62
2023-11-18T14:34:49.765Z,7.57
2023-11-18T14:36:49.932Z,7.51
2023-11-18T14:38:50.030Z,7.47
2023-11-18T14:40:50.132Z,7.45
2023-11-18T14:42:50.283Z,7.44
2023-11-18T14:44:50.218Z,7.41
2023-11-18T14:46:49.426Z,7.35
2023-11-18T14:48:49.676Z,7.31
2023-11-18T14:50:49.662Z,7.28
2023-11-18T14:52:49.975Z,7.25
2023-11-18T14:54:50.273Z,7.24
2023-11-18T14:56:49.457Z,7.20
2023-11-18T14:58:49.544Z,7.15
2023-11-18T15:00:49.750Z,7.14
2023-11-18T15:02:49.914Z,7.08
2023-11-18T15:04:50.107Z,7.08
2023-11-18T15:06:50.234Z,7.06
2023-11-18T15:08:50.309Z,7.00
2023-11-18T15:10:49.574Z,6.97
2023-11-18T15:12:49.523Z,6.97
2023-11-18T15:14:49.550Z,6.91
2023-11-18T15:16:49.677Z,6.90
2023-11-18T15:18:49.789Z,6.86
2023-11-18T15:20:50.120Z,6.87
2023-11-18T15:22:50.158Z,6.83
2023-11-18T15:24:50.188Z,6.84
2023-11-18T15:26:52.108Z,6.79
2023-11-18T15:28:49.392Z,6.76
2023-11-18T15:30:49.405Z,6.79
2023-11-18T15:32:49.653Z,6.80
2023-11-18T15:34:49.915Z,6.80
2023-11-18T15:36:50.009Z,6.69
2023-11-18T15:38:50.045Z,6.70
2023-11-18T15:40:50.097Z,6.69
2023-11-18T15:42:50.210Z,6.66
2023-11-18T15:44:50.288Z,6.66
2023-11-18T15:46:50.357Z,6.65
2023-11-18T15:48:49.582Z,6.63
2023-11-18T15:50:49.726Z,6.60
2023-11-18T15:52:49.877Z,6.57
2023-11-18T15:54:50.042Z,6.57
2023-11-18T15:56:50.162Z,6.56
2023-11-18T15:58:50.275Z,6.53
2023-11-18T16:00:49.470Z,6.56
2023-11-18T16:02:49.809Z,6.53
2023-11-18T16:04:50.124Z,6.47
2023-11-18T16:06:50.222Z,6.49
2023-11-18T16:08:49.480Z,6.50
2023-11-18T16:10:49.733Z,6.47
2023-11-18T16:12:49.766Z,6.47
2023-11-18T16:14:49.997Z,6.47
2023-11-18T16:16:50.226Z,6.47
2023-11-18T16:18:50.172Z,6.47
2023-11-18T16:20:50.297Z,6.50
2023-11-18T16:22:49.518Z,6.49
2023-11-18T16:24:49.639Z,6.50
2023-11-18T16:26:49.798Z,6.50
2023-11-18T16:28:49.904Z,6.52
2023-11-18T16:30:49.949Z,6.55
2023-11-18T16:32:50.855Z,6.52
2023-11-18T16:34:49.485Z,6.52
2023-11-18T16:36:49.759Z,6.53
2023-11-18T16:38:50.025Z,6.56
2023-11-18T16:40:50.198Z,6.55
2023-11-18T16:42:50.252Z,6.53
2023-11-18T16:44:49.556Z,6.55
2023-11-18T16:46:49.826Z,6.52
2023-11-18T16:48:49.955Z,6.49
2023-11-18T16:50:50.099Z,6.56
2023-11-18T16:52:50.319Z,6.53
2023-11-18T16:54:49.414Z,6.52
2023-11-18T16:56:49.708Z,6.57
2023-11-18T16:58:49.939Z,6.59
2023-11-18T17:00:50.008Z,6.59
2023-11-18T17:02:50.170Z,6.59
2023-11-18T17:04:49.577Z,6.60
2023-11-18T17:06:49.743Z,6.62
2023-11-18T17:08:49.873Z,6.60
2023-11-18T17:10:50.079Z,6.62
2023-11-18T17:12:50.334Z,6.60
2023-11-18T17:14:49.453Z,6.60
2023-11-18T17:16:49.574Z,6.52
2023-11-18T17:18:49.854Z,6.53
2023-11-18T17:20:50.062Z,6.50
2023-11-18T17:22:50.113Z,6.52
2023-11-18T17:24:50.178Z,6.47
2023-11-18T17:26:50.127Z,6.50
2023-11-18T17:28:50.185Z,6.46
2023-11-18T17:30:50.106Z,6.42
2023-11-18T17:32:50.240Z,6.43
2023-11-18T17:34:49.488Z,6.42
2023-11-18T17:36:49.743Z,6.40
2023-11-18T17:38:49.839Z,6.39
2023-11-18T17:40:49.929Z,6.37
2023-11-18T17:42:52.483Z,6.39
2023-11-18T17:44:49.446Z,6.36
2023-11-18T17:46:49.559Z,6.35
2023-11-18T17:48:49.677Z,6.33
2023-11-18T17:50:49.799Z,6.35
2023-11-18T17:52:49.788Z,6.33
2023-11-18T17:54:50.020Z,6.32
2023-11-18T17:56:50.028Z,6.32
2023-11-18T17:58:50.196Z,6.31
2023-11-18T18:00:50.385Z,6.23
2023-11-18T18:02:49.616Z,6.25
2023-11-18T18:04:49.890Z,6.22
2023-11-18T18:06:49.859Z,6.21
2023-11-18T18:08:49.945Z,6.19
2023-11-18T18:10:50.044Z,6.18
2023-11-18T18:12:49.931Z,6.18
2023-11-18T18:14:49.918Z,6.16
2023-11-18T18:16:50.130Z,6.15
2023-11-18T18:18:50.166Z,6.15
2023-11-18T18:20:49.547Z,6.13
2023-11-18T18:22:49.786Z,6.12
2023-11-18T18:24:49.934Z,6.12
2023-11-18T18:26:49.944Z,6.11
2023-11-18T18:28:49.973Z,6.13
2023-11-18T18:30:50.041Z,6.11
2023-11-18T18:32:50.658Z,6.12
2023-11-18T18:34:50.099Z,6.11
2023-11-18T18:36:50.244Z,6.12
2023-11-18T18:38:49.364Z,6.12
2023-11-18T18:40:50.330Z,6.06
2023-11-18T18:42:49.482Z,6.06
2023-11-18T18:44:49.641Z,6.08
2023-11-18T18:46:49.782Z,6.09
2023-11-18T18:48:49.856Z,6.06
2023-11-18T18:50:50.033Z,6.06
2023-11-18T18:52:50.168Z,6.05
2023-11-18T18:54:50.231Z,6.04
2023-11-18T18:56:49.511Z,6.05
2023-11-18T18:58:49.675Z,6.06
2023-11-18T19:00:49.820Z,6.09
2023-11-18T19:02:49.932Z,6.09
2023-11-18T19:04:50.246Z,6.09
2023-11-18T19:06:49.603Z,6.11
2023-11-18T19:08:49.700Z,6.08
2023-11-18T19:10:49.947Z,6.06
2023-11-18T19:12:50.162Z,6.12
2023-11-18T19:14:50.320Z,6.08
2023-11-18T19:16:49.493Z,6.06
2023-11-18T19:18:49.726Z,6.02
2023-11-18T19:20:49.731Z,6.04
2023-11-18T19:22:49.914Z,6.04
2023-11-18T19:24:50.083Z,6.04
2023-11-18T19:26:50.315Z,6.02
2023-11-18T19:28:49.470Z,6.02
2023-11-18T19:30:49.582Z,6.00
2023-11-18T19:32:49.734Z,6.00
2023-11-18T19:34:49.990Z,5.97
2023-11-18T19:36:50.059Z,5.95
2023-11-18T19:38:50.127Z,5.95
2023-11-18T19:40:49.366Z,5.94
2023-11-18T19:42:49.480Z,5.91
2023-11-18T19:44:49.627Z,5.90
2023-11-18T19:46:49.679Z,5.85
2023-11-18T19:48:49.809Z,5.87
2023-11-18T19:50:50.096Z,5.87
2023-11-18T19:52:50.364Z,5.82
2023-11-18T19:54:49.670Z,5.82
2023-11-18T19:56:49.781Z,5.81
2023-11-18T19:58:49.973Z,5.78
2023-11-18T20:00:50.195Z,5.77
2023-11-18T20:02:50.520Z,5.75
2023-11-18T20:04:49.794Z,5.74
2023-11-18T20:06:49.885Z,5.74
2023-11-18T20:08:49.827Z,5.68
2023-11-18T20:10:49.914Z,5.68
2023-11-18T20:12:50.078Z,5.68
2023-11-18T20:14:50.315Z,5.65
2023-11-18T20:16:49.610Z,5.68
2023-11-18T20:18:49.818Z,5.67
2023-11-18T20:20:49.832Z,5.62
2023-11-18T20:22:54.952Z,5.60
2023-11-18T20:24:49.626Z,5.64
2023-11-18T20:26:49.828Z,5.60
2023-11-18T20:28:49.882Z,5.61
2023-11-18T20:30:50.121Z,5.58
2023-11-18T20:32:50.361Z,5.58
2023-11-18T20:34:49.446Z,5.64
2023-11-18T20:36:49.613Z,5.62
2023-11-18T20:38:49.812Z,5.62
2023-11-18T20:40:49.893Z,5.62
2023-11-18T20:42:50.044Z,5.62
2023-11-18T20:44:50.166Z,5.58
2023-11-18T20:46:49.481Z,5.60
2023-11-18T20:48:49.822Z,5.58
2023-11-18T20:50:49.845Z,5.55
2023-11-18T20:52:49.944Z,5.57
2023-11-18T20:54:49.966Z,5.57
2023-11-18T20:56:50.157Z,5.51
2023-11-18T20:58:50.319Z,5.51
2023-11-18T21:00:49.385Z,5.55
2023-11-18T21:02:49.583Z,5.53
2023-11-18T21:04:50.161Z,5.54
2023-11-18T21:06:49.651Z,5.53
2023-11-18T21:08:49.770Z,5.53
2023-11-18T21:10:49.859Z,5.55
2023-11-18T21:12:49.980Z,5.54
2023-11-18T21:14:50.007Z,5.55
2023-11-18T21:16:50.092Z,5.58
2023-11-18T21:18:50.170Z,5.58
2023-11-18T21:20:50.283Z,5.55
2023-11-18T21:22:49.493Z,5.54
2023-11-18T21:24:49.732Z,5.57
2023-11-18T21:26:49.780Z,5.53
2023-11-18T21:28:50.019Z,5.54
2023-11-18T21:30:50.083Z,5.53
2023-11-18T21:32:50.398Z,5.51
2023-11-18T21:34:49.753Z,5.51
2023-11-18T21:36:49.800Z,5.47
2023-11-18T21:40:49.894Z,5.47
2023-11-18T21:42:49.927Z,5.46
2023-11-18T21:44:50.047Z,5.50
2023-11-18T21:46:50.125Z,5.46
2023-11-18T21:48:50.213Z,5.47
2023-11-18T21:50:50.264Z,5.50
2023-11-18T21:52:49.385Z,5.50
2023-11-18T21:54:49.435Z,5.50
2023-11-18T21:56:49.672Z,5.48
2023-11-18T21:58:49.910Z,5.47
2023-11-18T22:00:50.144Z,5.48
2023-11-18T22:02:50.646Z,5.48
2023-11-18T22:04:50.014Z,5.47
2023-11-18T22:06:52.573Z,5.46
2023-11-18T22:08:49.630Z,5.48
2023-11-18T22:10:49.766Z,5.46
2023-11-18T22:12:53.258Z,5.43
2023-11-18T22:14:49.745Z,5.47
2023-11-18T22:16:49.991Z,5.44
2023-11-18T22:18:50.029Z,5.44
2023-11-18T22:20:50.088Z,5.46
2023-11-18T22:22:50.492Z,5.46
2023-11-18T22:24:49.582Z,5.43
2023-11-18T22:26:51.502Z,5.44
2023-11-18T22:28:49.795Z,5.46
2023-11-18T22:30:49.785Z,5.43
2023-11-18T22:32:49.942Z,5.44
2023-11-18T22:34:50.132Z,5.43
2023-11-18T22:36:50.227Z,5.43
2023-11-18T22:38:50.322Z,5.46
2023-11-18T22:40:50.351Z,5.41
2023-11-18T22:42:49.592Z,5.41
2023-11-18T22:44:49.842Z,5.44
2023-11-18T22:46:49.981Z,5.44
2023-11-18T22:48:50.162Z,5.47
2023-11-18T22:50:49.509Z,5.46
2023-11-18T22:52:49.825Z,5.46
2023-11-18T22:54:49.913Z,5.47
2023-11-18T22:56:49.898Z,5.44
2023-11-18T22:58:50.002Z,5.51
2023-11-18T23:00:50.192Z,5.50
2023-11-18T23:02:49.421Z,5.50
2023-11-18T23:04:49.834Z,5.51
2023-11-18T23:06:49.902Z,5.51
2023-11-18T23:08:49.994Z,5.50
2023-11-18T23:10:50.359Z,5.50
2023-11-18T23:12:49.462Z,5.48
2023-11-18T23:14:49.506Z,5.48
2023-11-18T23:16:49.824Z,5.46
2023-11-18T23:18:50.078Z,5.47
2023-11-18T23:20:50.164Z,5.48
2023-11-18T23:22:50.143Z,5.51
2023-11-18T23:24:50.108Z,5.50
2023-11-18T23:26:50.280Z,5.53
2023-11-18T23:28:49.414Z,5.50
2023-11-18T23:30:49.801Z,5.54
2023-11-18T23:32:50.095Z,5.54
2023-11-18T23:34:50.295Z,5.53
2023-11-18T23:36:49.405Z,5.54
2023-11-18T23:38:49.631Z,5.53
2023-11-18T23:40:49.776Z,5.53
2023-11-18T23:42:49.994Z,5.58
2023-11-18T23:44:50.202Z,5.58
2023-11-18T23:46:50.332Z,5.51
2023-11-18T23:48:49.471Z,5.51
2023-11-18T23:50:49.705Z,5.54
2023-11-18T23:52:49.785Z,5.54
2023-11-18T23:54:49.884Z,5.51
2023-11-18T23:56:50.254Z,5.54
2023-11-18T23:58:49.382Z,5.57
